sensor_id;sensor_type;location;lat;lon;timestamp;P1;durP1;ratioP1;P2;durP2;ratioP2
3052;SDS011;1536;51.098;6.414;2022-12-07T00:02:25;17.67;;;13.95;;
3052;SDS011;1536;51.098;6.414;2022-12-07T00:04:52;22.40;;;14.75;;
3052;SDS011;1536;51.098;6.414;2022-12-07T00:07:19;21.17;;;14.05;;
3052;SDS011;1536;51.098;6.414;2022-12-07T00:09:47;20.55;;;14.80;;
3052;SDS011;1536;51.098;6.414;2022-12-07T00:12:13;16.15;;;13.38;;
3052;SDS011;1536;51.098;6.414;2022-12-07T00:14:40;18.35;;;14.55;;
3052;SDS011;1536;51.098;6.414;2022-12-07T00:17:07;18.17;;;14.20;;
3052;SDS011;1536;51.098;6.414;2022-12-07T00:19:33;16.50;;;13.88;;
3052;SDS011;1536;51.098;6.414;2022-12-07T00:22:00;15.43;;;13.25;;
3052;SDS011;1536;51.098;6.414;2022-12-07T00:24:27;20.45;;;14.32;;
3052;SDS011;1536;51.098;6.414;2022-12-07T00:26:55;18.27;;;14.82;;
3052;SDS011;1536;51.098;6.414;2022-12-07T00:29:21;18.33;;;15.25;;
3052;SDS011;1536;51.098;6.414;2022-12-07T00:31:48;20.58;;;15.90;;
3052;SDS011;1536;51.098;6.414;2022-12-07T00:34:16;20.00;;;15.45;;
3052;SDS011;1536;51.098;6.414;2022-12-07T00:36:44;17.33;;;15.52;;
3052;SDS011;1536;51.098;6.414;2022-12-07T00:39:11;20.50;;;15.95;;
3052;SDS011;1536;51.098;6.414;2022-12-07T00:41:38;21.77;;;15.48;;
3052;SDS011;1536;51.098;6.414;2022-12-07T00:44:06;25.60;;;16.85;;
3052;SDS011;1536;51.098;6.414;2022-12-07T00:46:33;17.83;;;15.93;;
3052;SDS011;1536;51.098;6.414;2022-12-07T00:48:59;20.48;;;15.52;;
3052;SDS011;1536;51.098;6.414;2022-12-07T00:51:26;20.90;;;16.00;;
3052;SDS011;1536;51.098;6.414;2022-12-07T00:53:53;18.05;;;15.25;;
3052;SDS011;1536;51.098;6.414;2022-12-07T00:56:21;26.38;;;16.20;;
3052;SDS011;1536;51.098;6.414;2022-12-07T00:58:49;21.05;;;17.25;;
3052;SDS011;1536;51.098;6.414;2022-12-07T01:01:18;19.10;;;17.08;;
3052;SDS011;1536;51.098;6.414;2022-12-07T01:03:45;23.58;;;17.40;;
3052;SDS011;1536;51.098;6.414;2022-12-07T01:06:13;21.17;;;15.98;;
3052;SDS011;1536;51.098;6.414;2022-12-07T01:08:41;18.63;;;16.33;;
3052;SDS011;1536;51.098;6.414;2022-12-07T01:11:09;19.75;;;15.52;;
3052;SDS011;1536;51.098;6.414;2022-12-07T01:13:38;23.10;;;17.70;;
3052;SDS011;1536;51.098;6.414;2022-12-07T01:16:06;21.08;;;16.13;;
3052;SDS011;1536;51.098;6.414;2022-12-07T01:18:35;16.08;;;14.43;;
3052;SDS011;1536;51.098;6.414;2022-12-07T01:21:03;21.95;;;17.13;;
3052;SDS011;1536;51.098;6.414;2022-12-07T01:23:31;24.40;;;17.35;;
3052;SDS011;1536;51.098;6.414;2022-12-07T01:25:59;21.50;;;16.33;;
3052;SDS011;1536;51.098;6.414;2022-12-07T01:28:27;18.75;;;15.70;;
3052;SDS011;1536;51.098;6.414;2022-12-07T01:30:55;20.67;;;15.25;;
3052;SDS011;1536;51.098;6.414;2022-12-07T01:33:22;19.40;;;15.35;;
3052;SDS011;1536;51.098;6.414;2022-12-07T01:35:50;24.02;;;18.13;;
3052;SDS011;1536;51.098;6.414;2022-12-07T01:38:17;17.38;;;15.25;;
3052;SDS011;1536;51.098;6.414;2022-12-07T01:40:44;22.85;;;15.85;;
3052;SDS011;1536;51.098;6.414;2022-12-07T01:43:14;20.27;;;16.65;;
3052;SDS011;1536;51.098;6.414;2022-12-07T01:45:43;22.58;;;17.25;;
3052;SDS011;1536;51.098;6.414;2022-12-07T01:48:11;19.35;;;17.30;;
3052;SDS011;1536;51.098;6.414;2022-12-07T01:50:41;20.92;;;18.10;;
3052;SDS011;1536;51.098;6.414;2022-12-07T01:53:12;22.05;;;18.20;;
3052;SDS011;1536;51.098;6.414;2022-12-07T01:55:41;22.65;;;17.67;;
3052;SDS011;1536;51.098;6.414;2022-12-07T01:58:11;22.45;;;19.75;;
3052;SDS011;1536;51.098;6.414;2022-12-07T02:00:39;20.95;;;17.38;;
3052;SDS011;1536;51.098;6.414;2022-12-07T02:03:08;26.17;;;21.27;;
3052;SDS011;1536;51.098;6.414;2022-12-07T02:05:40;28.17;;;21.20;;
3052;SDS011;1536;51.098;6.414;2022-12-07T02:08:08;24.98;;;20.13;;
3052;SDS011;1536;51.098;6.414;2022-12-07T02:10:38;29.50;;;21.65;;
3052;SDS011;1536;51.098;6.414;2022-12-07T02:13:06;25.20;;;19.48;;
3052;SDS011;1536;51.098;6.414;2022-12-07T02:15:39;24.02;;;20.38;;
3052;SDS011;1536;51.098;6.414;2022-12-07T02:18:18;26.48;;;20.30;;
3052;SDS011;1536;51.098;6.414;2022-12-07T02:20:55;27.60;;;22.13;;
3052;SDS011;1536;51.098;6.414;2022-12-07T02:29:29;31.05;;;23.52;;
3052;SDS011;1536;51.098;6.414;2022-12-07T02:32:01;29.75;;;24.70;;
3052;SDS011;1536;51.098;6.414;2022-12-07T02:34:35;34.15;;;24.50;;
3052;SDS011;1536;51.098;6.414;2022-12-07T02:37:10;31.70;;;24.85;;
3052;SDS011;1536;51.098;6.414;2022-12-07T02:39:55;34.03;;;24.38;;
3052;SDS011;1536;51.098;6.414;2022-12-07T02:42:27;31.80;;;24.55;;
3052;SDS011;1536;51.098;6.414;2022-12-07T02:44:59;29.80;;;23.88;;
3052;SDS011;1536;51.098;6.414;2022-12-07T02:47:27;31.98;;;26.05;;
3052;SDS011;1536;51.098;6.414;2022-12-07T02:49:55;32.63;;;25.95;;
3052;SDS011;1536;51.098;6.414;2022-12-07T02:52:22;33.60;;;26.08;;
3052;SDS011;1536;51.098;6.414;2022-12-07T02:54:49;32.92;;;25.35;;
3052;SDS011;1536;51.098;6.414;2022-12-07T02:57:21;33.15;;;26.35;;
3052;SDS011;1536;51.098;6.414;2022-12-07T03:00:00;33.78;;;26.10;;
3052;SDS011;1536;51.098;6.414;2022-12-07T03:02:31;37.83;;;27.90;;
3052;SDS011;1536;51.098;6.414;2022-12-07T03:05:18;33.65;;;26.70;;
3052;SDS011;1536;51.098;6.414;2022-12-07T03:07:55;38.70;;;28.58;;
3052;SDS011;1536;51.098;6.414;2022-12-07T03:10:28;36.25;;;28.42;;
3052;SDS011;1536;51.098;6.414;2022-12-07T03:13:02;32.60;;;26.98;;
3052;SDS011;1536;51.098;6.414;2022-12-07T03:15:35;35.28;;;27.45;;
3052;SDS011;1536;51.098;6.414;2022-12-07T03:18:07;35.15;;;27.75;;
3052;SDS011;1536;51.098;6.414;2022-12-07T03:20:37;36.03;;;26.17;;
3052;SDS011;1536;51.098;6.414;2022-12-07T03:23:05;33.58;;;26.63;;
3052;SDS011;1536;51.098;6.414;2022-12-07T03:25:37;33.97;;;25.17;;
3052;SDS011;1536;51.098;6.414;2022-12-07T03:28:06;28.35;;;23.80;;
3052;SDS011;1536;51.098;6.414;2022-12-07T03:30:37;32.30;;;25.83;;
3052;SDS011;1536;51.098;6.414;2022-12-07T03:33:09;34.55;;;27.60;;
3052;SDS011;1536;51.098;6.414;2022-12-07T03:35:40;36.35;;;27.10;;
3052;SDS011;1536;51.098;6.414;2022-12-07T03:38:13;40.92;;;25.13;;
3052;SDS011;1536;51.098;6.414;2022-12-07T03:40:44;31.98;;;26.85;;
3052;SDS011;1536;51.098;6.414;2022-12-07T03:43:16;33.90;;;26.15;;
3052;SDS011;1536;51.098;6.414;2022-12-07T03:45:47;32.33;;;25.48;;
3052;SDS011;1536;51.098;6.414;2022-12-07T03:48:26;30.10;;;24.90;;
3052;SDS011;1536;51.098;6.414;2022-12-07T03:51:01;29.08;;;25.92;;
3052;SDS011;1536;51.098;6.414;2022-12-07T03:53:35;28.75;;;25.13;;
3052;SDS011;1536;51.098;6.414;2022-12-07T03:56:06;34.45;;;24.88;;
3052;SDS011;1536;51.098;6.414;2022-12-07T03:58:34;29.00;;;24.17;;
3052;SDS011;1536;51.098;6.414;2022-12-07T04:01:03;28.10;;;24.48;;
3052;SDS011;1536;51.098;6.414;2022-12-07T04:03:29;28.92;;;24.48;;
3052;SDS011;1536;51.098;6.414;2022-12-07T04:05:56;25.63;;;22.77;;
3052;SDS011;1536;51.098;6.414;2022-12-07T04:08:24;27.52;;;23.42;;
3052;SDS011;1536;51.098;6.414;2022-12-07T04:10:51;30.55;;;22.27;;
3052;SDS011;1536;51.098;6.414;2022-12-07T04:13:17;27.10;;;22.92;;
3052;SDS011;1536;51.098;6.414;2022-12-07T04:15:44;27.42;;;22.30;;
3052;SDS011;1536;51.098;6.414;2022-12-07T04:18:12;30.60;;;21.52;;
3052;SDS011;1536;51.098;6.414;2022-12-07T04:20:39;33.22;;;20.98;;
3052;SDS011;1536;51.098;6.414;2022-12-07T04:23:06;23.83;;;21.23;;
3052;SDS011;1536;51.098;6.414;2022-12-07T04:25:32;22.80;;;19.52;;
3052;SDS011;1536;51.098;6.414;2022-12-07T04:27:59;22.73;;;20.25;;
3052;SDS011;1536;51.098;6.414;2022-12-07T04:30:26;23.73;;;20.23;;
3052;SDS011;1536;51.098;6.414;2022-12-07T04:32:53;21.50;;;19.25;;
3052;SDS011;1536;51.098;6.414;2022-12-07T04:35:21;25.50;;;19.20;;
3052;SDS011;1536;51.098;6.414;2022-12-07T04:37:47;24.20;;;19.75;;
3052;SDS011;1536;51.098;6.414;2022-12-07T04:40:14;25.27;;;18.00;;
3052;SDS011;1536;51.098;6.414;2022-12-07T04:42:41;21.98;;;19.13;;
3052;SDS011;1536;51.098;6.414;2022-12-07T04:45:08;21.98;;;18.52;;
3052;SDS011;1536;51.098;6.414;2022-12-07T04:47:35;23.60;;;19.88;;
3052;SDS011;1536;51.098;6.414;2022-12-07T04:50:02;25.52;;;20.98;;
3052;SDS011;1536;51.098;6.414;2022-12-07T04:52:31;23.05;;;20.27;;
3052;SDS011;1536;51.098;6.414;2022-12-07T04:54:57;25.88;;;21.00;;
3052;SDS011;1536;51.098;6.414;2022-12-07T04:57:24;27.60;;;20.88;;
3052;SDS011;1536;51.098;6.414;2022-12-07T04:59:51;23.88;;;20.80;;
3052;SDS011;1536;51.098;6.414;2022-12-07T05:02:17;27.35;;;21.42;;
3052;SDS011;1536;51.098;6.414;2022-12-07T05:04:44;25.80;;;21.13;;
3052;SDS011;1536;51.098;6.414;2022-12-07T05:07:11;25.95;;;20.67;;
3052;SDS011;1536;51.098;6.414;2022-12-07T05:09:39;28.00;;;21.90;;
3052;SDS011;1536;51.098;6.414;2022-12-07T05:12:05;26.58;;;21.35;;
3052;SDS011;1536;51.098;6.414;2022-12-07T05:14:32;24.63;;;21.65;;
3052;SDS011;1536;51.098;6.414;2022-12-07T05:16:59;27.98;;;21.10;;
3052;SDS011;1536;51.098;6.414;2022-12-07T05:19:26;28.27;;;21.33;;
3052;SDS011;1536;51.098;6.414;2022-12-07T05:21:52;24.17;;;21.27;;
3052;SDS011;1536;51.098;6.414;2022-12-07T05:24:19;28.40;;;22.80;;
3052;SDS011;1536;51.098;6.414;2022-12-07T05:26:47;25.20;;;20.73;;
3052;SDS011;1536;51.098;6.414;2022-12-07T05:29:14;24.17;;;21.50;;
3052;SDS011;1536;51.098;6.414;2022-12-07T05:31:43;23.35;;;20.85;;
3052;SDS011;1536;51.098;6.414;2022-12-07T05:34:10;27.92;;;21.45;;
3052;SDS011;1536;51.098;6.414;2022-12-07T05:36:37;28.55;;;20.33;;
3052;SDS011;1536;51.098;6.414;2022-12-07T05:39:03;25.60;;;19.92;;
3052;SDS011;1536;51.098;6.414;2022-12-07T05:41:30;22.45;;;20.10;;
3052;SDS011;1536;51.098;6.414;2022-12-07T05:44:16;22.33;;;20.00;;
3052;SDS011;1536;51.098;6.414;2022-12-07T05:46:42;23.52;;;20.05;;
3052;SDS011;1536;51.098;6.414;2022-12-07T05:49:09;26.48;;;20.48;;
3052;SDS011;1536;51.098;6.414;2022-12-07T05:51:36;22.20;;;18.90;;
3052;SDS011;1536;51.098;6.414;2022-12-07T05:54:03;25.02;;;19.15;;
3052;SDS011;1536;51.098;6.414;2022-12-07T05:56:29;22.40;;;19.10;;
3052;SDS011;1536;51.098;6.414;2022-12-07T05:58:56;20.17;;;17.92;;
3052;SDS011;1536;51.098;6.414;2022-12-07T06:01:41;24.67;;;18.52;;
3052;SDS011;1536;51.098;6.414;2022-12-07T06:04:08;20.40;;;16.48;;
3052;SDS011;1536;51.098;6.414;2022-12-07T06:06:35;21.95;;;17.40;;
3052;SDS011;1536;51.098;6.414;2022-12-07T06:09:02;26.33;;;19.13;;
3052;SDS011;1536;51.098;6.414;2022-12-07T06:11:29;21.85;;;17.33;;
3052;SDS011;1536;51.098;6.414;2022-12-07T06:14:12;23.75;;;18.58;;
3052;SDS011;1536;51.098;6.414;2022-12-07T06:16:39;24.63;;;17.90;;
3052;SDS011;1536;51.098;6.414;2022-12-07T06:19:07;19.45;;;17.35;;
3052;SDS011;1536;51.098;6.414;2022-12-07T06:21:34;21.30;;;18.67;;
3052;SDS011;1536;51.098;6.414;2022-12-07T06:24:00;19.20;;;16.83;;
3052;SDS011;1536;51.098;6.414;2022-12-07T06:26:27;20.15;;;16.20;;
3052;SDS011;1536;51.098;6.414;2022-12-07T06:28:54;24.10;;;16.52;;
3052;SDS011;1536;51.098;6.414;2022-12-07T06:31:21;18.83;;;16.15;;
3052;SDS011;1536;51.098;6.414;2022-12-07T06:33:48;20.27;;;16.60;;
3052;SDS011;1536;51.098;6.414;2022-12-07T06:36:16;19.92;;;16.08;;
3052;SDS011;1536;51.098;6.414;2022-12-07T06:38:42;21.42;;;15.27;;
3052;SDS011;1536;51.098;6.414;2022-12-07T06:41:09;17.02;;;15.07;;
3052;SDS011;1536;51.098;6.414;2022-12-07T06:43:36;20.20;;;15.77;;
3052;SDS011;1536;51.098;6.414;2022-12-07T06:46:03;17.60;;;15.75;;
3052;SDS011;1536;51.098;6.414;2022-12-07T06:48:30;16.60;;;14.90;;
3052;SDS011;1536;51.098;6.414;2022-12-07T06:50:56;18.65;;;15.82;;
3052;SDS011;1536;51.098;6.414;2022-12-07T06:53:24;18.15;;;15.93;;
3052;SDS011;1536;51.098;6.414;2022-12-07T06:55:51;17.23;;;14.60;;
3052;SDS011;1536;51.098;6.414;2022-12-07T06:58:18;16.17;;;14.45;;
3052;SDS011;1536;51.098;6.414;2022-12-07T07:02:22;15.50;;;12.20;;
3052;SDS011;1536;51.098;6.414;2022-12-07T07:04:49;23.45;;;14.02;;
3052;SDS011;1536;51.098;6.414;2022-12-07T07:07:16;17.92;;;13.32;;
3052;SDS011;1536;51.098;6.414;2022-12-07T07:09:42;17.52;;;14.35;;
3052;SDS011;1536;51.098;6.414;2022-12-07T07:12:09;14.80;;;13.00;;
3052;SDS011;1536;51.098;6.414;2022-12-07T07:14:35;14.95;;;13.50;;
3052;SDS011;1536;51.098;6.414;2022-12-07T07:17:02;15.50;;;13.90;;
3052;SDS011;1536;51.098;6.414;2022-12-07T07:19:30;17.02;;;15.27;;
3052;SDS011;1536;51.098;6.414;2022-12-07T07:21:57;15.77;;;14.18;;
3052;SDS011;1536;51.098;6.414;2022-12-07T07:24:23;17.77;;;14.15;;
3052;SDS011;1536;51.098;6.414;2022-12-07T07:26:50;15.25;;;13.75;;
3052;SDS011;1536;51.098;6.414;2022-12-07T07:29:16;15.88;;;14.18;;
3052;SDS011;1536;51.098;6.414;2022-12-07T07:31:43;18.48;;;14.80;;
3052;SDS011;1536;51.098;6.414;2022-12-07T07:34:10;15.30;;;13.82;;
3052;SDS011;1536;51.098;6.414;2022-12-07T07:36:38;16.65;;;14.65;;
3052;SDS011;1536;51.098;6.414;2022-12-07T07:39:04;18.25;;;14.50;;
3052;SDS011;1536;51.098;6.414;2022-12-07T07:41:31;16.92;;;15.10;;
3052;SDS011;1536;51.098;6.414;2022-12-07T07:43:58;15.73;;;14.02;;
3052;SDS011;1536;51.098;6.414;2022-12-07T07:46:24;16.17;;;14.45;;
3052;SDS011;1536;51.098;6.414;2022-12-07T07:48:51;16.58;;;14.18;;
3052;SDS011;1536;51.098;6.414;2022-12-07T07:51:18;21.40;;;16.48;;
3052;SDS011;1536;51.098;6.414;2022-12-07T07:53:46;17.40;;;15.32;;
3052;SDS011;1536;51.098;6.414;2022-12-07T07:56:12;18.27;;;16.38;;
3052;SDS011;1536;51.098;6.414;2022-12-07T07:58:39;21.10;;;16.00;;
3052;SDS011;1536;51.098;6.414;2022-12-07T08:01:06;18.80;;;16.80;;
3052;SDS011;1536;51.098;6.414;2022-12-07T08:03:33;20.05;;;15.85;;
3052;SDS011;1536;51.098;6.414;2022-12-07T08:06:01;18.95;;;15.85;;
3052;SDS011;1536;51.098;6.414;2022-12-07T08:08:28;22.88;;;17.90;;
3052;SDS011;1536;51.098;6.414;2022-12-07T08:10:56;19.77;;;17.70;;
3052;SDS011;1536;51.098;6.414;2022-12-07T08:13:25;21.88;;;16.67;;
3052;SDS011;1536;51.098;6.414;2022-12-07T08:15:52;19.08;;;17.13;;
3052;SDS011;1536;51.098;6.414;2022-12-07T08:18:19;22.17;;;17.83;;
3052;SDS011;1536;51.098;6.414;2022-12-07T08:20:45;20.38;;;17.17;;
3052;SDS011;1536;51.098;6.414;2022-12-07T08:23:12;19.65;;;16.30;;
3052;SDS011;1536;51.098;6.414;2022-12-07T08:25:39;24.13;;;17.20;;
3052;SDS011;1536;51.098;6.414;2022-12-07T08:28:08;22.20;;;16.90;;
3052;SDS011;1536;51.098;6.414;2022-12-07T08:30:35;17.90;;;15.73;;
3052;SDS011;1536;51.098;6.414;2022-12-07T08:33:02;21.48;;;16.50;;
3052;SDS011;1536;51.098;6.414;2022-12-07T08:35:28;20.45;;;16.42;;
3052;SDS011;1536;51.098;6.414;2022-12-07T08:37:55;22.58;;;15.68;;
3052;SDS011;1536;51.098;6.414;2022-12-07T08:40:22;19.58;;;15.38;;
3052;SDS011;1536;51.098;6.414;2022-12-07T08:42:49;19.77;;;14.82;;
3052;SDS011;1536;51.098;6.414;2022-12-07T08:45:18;19.38;;;15.10;;
3052;SDS011;1536;51.098;6.414;2022-12-07T08:47:48;19.48;;;15.45;;
3052;SDS011;1536;51.098;6.414;2022-12-07T08:50:17;20.67;;;17.20;;
3052;SDS011;1536;51.098;6.414;2022-12-07T08:52:44;18.55;;;15.10;;
3052;SDS011;1536;51.098;6.414;2022-12-07T08:55:17;17.83;;;15.18;;
3052;SDS011;1536;51.098;6.414;2022-12-07T08:57:44;24.30;;;16.95;;
3052;SDS011;1536;51.098;6.414;2022-12-07T09:00:11;19.65;;;16.02;;
3052;SDS011;1536;51.098;6.414;2022-12-07T09:02:40;21.85;;;14.55;;
3052;SDS011;1536;51.098;6.414;2022-12-07T09:05:07;17.80;;;15.02;;
3052;SDS011;1536;51.098;6.414;2022-12-07T09:07:34;17.45;;;15.38;;
3052;SDS011;1536;51.098;6.414;2022-12-07T09:10:02;22.98;;;15.73;;
3052;SDS011;1536;51.098;6.414;2022-12-07T09:12:30;19.30;;;15.07;;
3052;SDS011;1536;51.098;6.414;2022-12-07T09:14:56;18.48;;;15.82;;
3052;SDS011;1536;51.098;6.414;2022-12-07T09:17:23;22.48;;;16.58;;
3052;SDS011;1536;51.098;6.414;2022-12-07T09:19:51;20.55;;;16.55;;
3052;SDS011;1536;51.098;6.414;2022-12-07T09:22:18;20.52;;;15.40;;
3052;SDS011;1536;51.098;6.414;2022-12-07T09:24:44;20.65;;;15.52;;
3052;SDS011;1536;51.098;6.414;2022-12-07T09:27:12;21.80;;;15.10;;
3052;SDS011;1536;51.098;6.414;2022-12-07T09:29:38;23.33;;;15.30;;
3052;SDS011;1536;51.098;6.414;2022-12-07T09:32:05;27.20;;;15.40;;
3052;SDS011;1536;51.098;6.414;2022-12-07T09:34:32;21.40;;;14.25;;
3052;SDS011;1536;51.098;6.414;2022-12-07T09:37:01;15.48;;;13.82;;
3052;SDS011;1536;51.098;6.414;2022-12-07T09:39:29;17.55;;;13.48;;
3052;SDS011;1536;51.098;6.414;2022-12-07T09:41:56;17.33;;;14.65;;
3052;SDS011;1536;51.098;6.414;2022-12-07T09:44:24;18.30;;;15.80;;
3052;SDS011;1536;51.098;6.414;2022-12-07T09:46:52;19.95;;;14.80;;
3052;SDS011;1536;51.098;6.414;2022-12-07T09:49:20;18.85;;;14.32;;
3052;SDS011;1536;51.098;6.414;2022-12-07T09:51:57;20.20;;;14.93;;
3052;SDS011;1536;51.098;6.414;2022-12-07T09:54:28;19.55;;;14.77;;
3052;SDS011;1536;51.098;6.414;2022-12-07T09:56:56;20.17;;;14.90;;
3052;SDS011;1536;51.098;6.414;2022-12-07T09:59:23;26.60;;;13.90;;
3052;SDS011;1536;51.098;6.414;2022-12-07T10:01:49;18.70;;;13.65;;
3052;SDS011;1536;51.098;6.414;2022-12-07T10:04:16;19.80;;;15.50;;
3052;SDS011;1536;51.098;6.414;2022-12-07T10:06:46;19.85;;;14.85;;
3052;SDS011;1536;51.098;6.414;2022-12-07T10:09:16;21.38;;;15.43;;
3052;SDS011;1536;51.098;6.414;2022-12-07T10:12:02;25.95;;;14.27;;
3052;SDS011;1536;51.098;6.414;2022-12-07T10:14:32;20.65;;;15.18;;
3052;SDS011;1536;51.098;6.414;2022-12-07T10:17:00;18.25;;;16.05;;
3052;SDS011;1536;51.098;6.414;2022-12-07T10:19:27;20.65;;;14.65;;
3052;SDS011;1536;51.098;6.414;2022-12-07T10:21:59;26.70;;;15.52;;
3052;SDS011;1536;51.098;6.414;2022-12-07T10:24:36;18.52;;;15.15;;
3052;SDS011;1536;51.098;6.414;2022-12-07T10:27:10;20.00;;;14.45;;
3052;SDS011;1536;51.098;6.414;2022-12-07T10:29:46;22.08;;;15.05;;
3052;SDS011;1536;51.098;6.414;2022-12-07T10:32:26;24.60;;;15.60;;
3052;SDS011;1536;51.098;6.414;2022-12-07T10:35:15;19.25;;;14.93;;
3052;SDS011;1536;51.098;6.414;2022-12-07T10:37:45;23.40;;;16.20;;
3052;SDS011;1536;51.098;6.414;2022-12-07T10:40:23;25.00;;;16.38;;
3052;SDS011;1536;51.098;6.414;2022-12-07T10:43:01;17.33;;;14.70;;
3052;SDS011;1536;51.098;6.414;2022-12-07T10:45:29;22.42;;;14.88;;
3052;SDS011;1536;51.098;6.414;2022-12-07T10:47:58;24.17;;;16.92;;
3052;SDS011;1536;51.098;6.414;2022-12-07T10:50:49;28.25;;;16.90;;
3052;SDS011;1536;51.098;6.414;2022-12-07T10:53:28;19.77;;;16.15;;
3052;SDS011;1536;51.098;6.414;2022-12-07T10:56:26;24.35;;;16.48;;
3052;SDS011;1536;51.098;6.414;2022-12-07T10:59:23;21.55;;;16.25;;
3052;SDS011;1536;51.098;6.414;2022-12-07T11:02:11;27.65;;;17.70;;
3052;SDS011;1536;51.098;6.414;2022-12-07T11:04:54;25.08;;;17.67;;
3052;SDS011;1536;51.098;6.414;2022-12-07T11:07:30;21.52;;;15.57;;
3052;SDS011;1536;51.098;6.414;2022-12-07T11:10:08;23.60;;;17.67;;
3052;SDS011;1536;51.098;6.414;2022-12-07T11:12:43;27.27;;;17.85;;
3052;SDS011;1536;51.098;6.414;2022-12-07T11:15:19;27.77;;;18.08;;
3052;SDS011;1536;51.098;6.414;2022-12-07T11:17:52;26.67;;;17.55;;
3052;SDS011;1536;51.098;6.414;2022-12-07T11:20:39;26.48;;;18.50;;
3052;SDS011;1536;51.098;6.414;2022-12-07T11:23:14;24.35;;;19.60;;
3052;SDS011;1536;51.098;6.414;2022-12-07T11:28:37;29.38;;;21.20;;
3052;SDS011;1536;51.098;6.414;2022-12-07T11:31:19;30.88;;;19.98;;
3052;SDS011;1536;51.098;6.414;2022-12-07T11:33:53;35.58;;;21.20;;
3052;SDS011;1536;51.098;6.414;2022-12-07T11:36:31;28.33;;;18.45;;
3052;SDS011;1536;51.098;6.414;2022-12-07T11:39:03;26.10;;;17.92;;
3052;SDS011;1536;51.098;6.414;2022-12-07T11:41:37;22.73;;;16.88;;
3052;SDS011;1536;51.098;6.414;2022-12-07T11:44:06;21.42;;;16.58;;
3052;SDS011;1536;51.098;6.414;2022-12-07T11:46:47;17.08;;;14.63;;
3052;SDS011;1536;51.098;6.414;2022-12-07T11:49:19;20.58;;;15.25;;
3052;SDS011;1536;51.098;6.414;2022-12-07T11:51:53;22.55;;;15.80;;
3052;SDS011;1536;51.098;6.414;2022-12-07T11:54:23;17.90;;;13.23;;
3052;SDS011;1536;51.098;6.414;2022-12-07T11:56:53;21.00;;;14.73;;
3052;SDS011;1536;51.098;6.414;2022-12-07T11:59:27;13.45;;;11.45;;
3052;SDS011;1536;51.098;6.414;2022-12-07T12:02:01;15.68;;;11.35;;
3052;SDS011;1536;51.098;6.414;2022-12-07T12:04:42;16.42;;;11.93;;
3052;SDS011;1536;51.098;6.414;2022-12-07T12:07:17;14.18;;;11.88;;
3052;SDS011;1536;51.098;6.414;2022-12-07T12:09:48;18.48;;;11.15;;
3052;SDS011;1536;51.098;6.414;2022-12-07T12:12:22;19.90;;;12.35;;
3052;SDS011;1536;51.098;6.414;2022-12-07T12:15:03;18.58;;;12.55;;
3052;SDS011;1536;51.098;6.414;2022-12-07T12:20:51;14.50;;;10.80;;
3052;SDS011;1536;51.098;6.414;2022-12-07T12:23:22;13.93;;;11.10;;
3052;SDS011;1536;51.098;6.414;2022-12-07T12:25:51;14.30;;;11.23;;
3052;SDS011;1536;51.098;6.414;2022-12-07T12:28:23;15.27;;;11.65;;
3052;SDS011;1536;51.098;6.414;2022-12-07T12:31:06;18.13;;;11.73;;
3052;SDS011;1536;51.098;6.414;2022-12-07T12:33:37;14.70;;;11.27;;
3052;SDS011;1536;51.098;6.414;2022-12-07T12:39:10;22.55;;;11.93;;
3052;SDS011;1536;51.098;6.414;2022-12-07T12:41:53;22.98;;;12.52;;
3052;SDS011;1536;51.098;6.414;2022-12-07T12:44:40;20.38;;;11.40;;
3052;SDS011;1536;51.098;6.414;2022-12-07T12:50:26;15.23;;;10.82;;
3052;SDS011;1536;51.098;6.414;2022-12-07T12:53:01;18.75;;;13.57;;
3052;SDS011;1536;51.098;6.414;2022-12-07T12:55:45;17.40;;;12.38;;
3052;SDS011;1536;51.098;6.414;2022-12-07T12:58:42;16.95;;;11.55;;
3052;SDS011;1536;51.098;6.414;2022-12-07T13:04:28;15.48;;;12.00;;
3052;SDS011;1536;51.098;6.414;2022-12-07T13:07:06;21.75;;;12.15;;
3052;SDS011;1536;51.098;6.414;2022-12-07T13:09:39;16.30;;;10.20;;
3052;SDS011;1536;51.098;6.414;2022-12-07T13:12:11;14.07;;;9.75;;
3052;SDS011;1536;51.098;6.414;2022-12-07T13:20:40;13.55;;;8.98;;
3052;SDS011;1536;51.098;6.414;2022-12-07T13:23:11;12.45;;;8.45;;
3052;SDS011;1536;51.098;6.414;2022-12-07T13:25:49;11.02;;;6.85;;
3052;SDS011;1536;51.098;6.414;2022-12-07T13:28:21;13.43;;;7.03;;
3052;SDS011;1536;51.098;6.414;2022-12-07T13:31:03;13.32;;;6.30;;
3052;SDS011;1536;51.098;6.414;2022-12-07T13:33:45;15.82;;;6.10;;
3052;SDS011;1536;51.098;6.414;2022-12-07T13:36:16;9.90;;;6.72;;
3052;SDS011;1536;51.098;6.414;2022-12-07T13:38:52;15.93;;;7.80;;
3052;SDS011;1536;51.098;6.414;2022-12-07T13:41:21;6.90;;;6.20;;
3052;SDS011;1536;51.098;6.414;2022-12-07T13:43:50;11.85;;;6.35;;
3052;SDS011;1536;51.098;6.414;2022-12-07T13:46:21;11.07;;;6.55;;
3052;SDS011;1536;51.098;6.414;2022-12-07T13:48:52;13.30;;;6.68;;
3052;SDS011;1536;51.098;6.414;2022-12-07T13:51:21;12.15;;;7.72;;
3052;SDS011;1536;51.098;6.414;2022-12-07T13:53:50;18.75;;;7.05;;
3052;SDS011;1536;51.098;6.414;2022-12-07T13:56:25;9.70;;;6.90;;
3052;SDS011;1536;51.098;6.414;2022-12-07T13:58:57;17.80;;;8.45;;
3052;SDS011;1536;51.098;6.414;2022-12-07T14:01:24;13.60;;;9.18;;
3052;SDS011;1536;51.098;6.414;2022-12-07T14:03:51;12.13;;;9.00;;
3052;SDS011;1536;51.098;6.414;2022-12-07T14:06:24;11.05;;;8.73;;
3052;SDS011;1536;51.098;6.414;2022-12-07T14:09:07;13.77;;;9.30;;
3052;SDS011;1536;51.098;6.414;2022-12-07T14:11:34;11.00;;;8.75;;
3052;SDS011;1536;51.098;6.414;2022-12-07T14:14:02;11.15;;;9.23;;
3052;SDS011;1536;51.098;6.414;2022-12-07T14:16:30;13.60;;;9.15;;
3052;SDS011;1536;51.098;6.414;2022-12-07T14:18:58;12.75;;;8.68;;
3052;SDS011;1536;51.098;6.414;2022-12-07T14:21:27;9.20;;;6.30;;
3052;SDS011;1536;51.098;6.414;2022-12-07T14:24:14;9.57;;;5.25;;
3052;SDS011;1536;51.098;6.414;2022-12-07T14:26:43;5.88;;;4.15;;
3052;SDS011;1536;51.098;6.414;2022-12-07T14:29:30;7.20;;;3.88;;
3052;SDS011;1536;51.098;6.414;2022-12-07T14:32:08;5.03;;;3.78;;
3052;SDS011;1536;51.098;6.414;2022-12-07T14:34:54;7.57;;;4.50;;
3052;SDS011;1536;51.098;6.414;2022-12-07T14:37:26;7.95;;;4.85;;
3052;SDS011;1536;51.098;6.414;2022-12-07T14:40:12;8.93;;;5.15;;
3052;SDS011;1536;51.098;6.414;2022-12-07T14:42:40;6.20;;;5.05;;
3052;SDS011;1536;51.098;6.414;2022-12-07T14:45:11;5.68;;;4.40;;
3052;SDS011;1536;51.098;6.414;2022-12-07T14:47:40;8.45;;;5.40;;
3052;SDS011;1536;51.098;6.414;2022-12-07T14:50:07;7.35;;;4.90;;
3052;SDS011;1536;51.098;6.414;2022-12-07T14:52:37;5.65;;;4.60;;
3052;SDS011;1536;51.098;6.414;2022-12-07T14:55:07;12.85;;;5.25;;
3052;SDS011;1536;51.098;6.414;2022-12-07T14:57:42;9.20;;;5.38;;
3052;SDS011;1536;51.098;6.414;2022-12-07T15:00:24;6.47;;;4.50;;
3052;SDS011;1536;51.098;6.414;2022-12-07T15:02:52;8.73;;;5.50;;
3052;SDS011;1536;51.098;6.414;2022-12-07T15:05:19;7.80;;;4.07;;
3052;SDS011;1536;51.098;6.414;2022-12-07T15:07:45;7.88;;;5.38;;
3052;SDS011;1536;51.098;6.414;2022-12-07T15:10:16;7.43;;;4.45;;
3052;SDS011;1536;51.098;6.414;2022-12-07T15:12:44;7.28;;;5.32;;
3052;SDS011;1536;51.098;6.414;2022-12-07T15:15:11;7.45;;;6.60;;
3052;SDS011;1536;51.098;6.414;2022-12-07T15:17:38;13.00;;;7.03;;
3052;SDS011;1536;51.098;6.414;2022-12-07T15:20:07;8.45;;;6.55;;
3052;SDS011;1536;51.098;6.414;2022-12-07T15:22:37;9.50;;;6.80;;
3052;SDS011;1536;51.098;6.414;2022-12-07T15:25:04;8.48;;;6.25;;
3052;SDS011;1536;51.098;6.414;2022-12-07T15:27:33;7.75;;;6.35;;
3052;SDS011;1536;51.098;6.414;2022-12-07T15:29:59;8.65;;;6.72;;
3052;SDS011;1536;51.098;6.414;2022-12-07T15:32:26;6.55;;;5.95;;
3052;SDS011;1536;51.098;6.414;2022-12-07T15:34:53;7.50;;;6.22;;
3052;SDS011;1536;51.098;6.414;2022-12-07T15:37:19;14.90;;;7.20;;
3052;SDS011;1536;51.098;6.414;2022-12-07T15:39:46;8.23;;;6.85;;